sensor_id;sensor_type;location;lat;lon;timestamp;P1;durP1;ratioP1;P2;durP2;ratioP2
65706;SDS011;52423;43.512;5.220;2024-03-02T00:01:19;9.23;;;4.07;;
65706;SDS011;52423;43.512;5.220;2024-03-02T00:03:44;11.23;;;5.40;;
65706;SDS011;52423;43.512;5.220;2024-03-02T00:06:09;12.88;;;5.78;;
65706;SDS011;52423;43.512;5.220;2024-03-02T00:08:35;13.18;;;6.10;;
65706;SDS011;52423;43.512;5.220;2024-03-02T00:11:01;11.80;;;4.75;;
65706;SDS011;52423;43.512;5.220;2024-03-02T00:13:28;7.93;;;5.05;;
65706;SDS011;52423;43.512;5.220;2024-03-02T00:15:55;13.15;;;5.80;;
65706;SDS011;52423;43.512;5.220;2024-03-02T00:20:57;12.15;;;6.13;;
65706;SDS011;52423;43.512;5.220;2024-03-02T00:23:23;9.35;;;4.75;;
65706;SDS011;52423;43.512;5.220;2024-03-02T00:25:54;9.52;;;5.47;;
65706;SDS011;52423;43.512;5.220;2024-03-02T00:28:25;11.02;;;5.43;;
65706;SDS011;52423;43.512;5.220;2024-03-02T00:30:57;9.65;;;4.50;;
65706;SDS011;52423;43.512;5.220;2024-03-02T00:33:25;9.48;;;5.00;;
65706;SDS011;52423;43.512;5.220;2024-03-02T00:35:55;4.75;;;3.35;;
65706;SDS011;52423;43.512;5.220;2024-03-02T00:38:21;10.18;;;4.65;;
65706;SDS011;52423;43.512;5.220;2024-03-02T00:40:47;7.22;;;4.30;;
65706;SDS011;52423;43.512;5.220;2024-03-02T00:46:19;4.78;;;2.88;;
65706;SDS011;52423;43.512;5.220;2024-03-02T00:48:47;5.47;;;2.58;;
65706;SDS011;52423;43.512;5.220;2024-03-02T00:51:17;3.97;;;3.13;;
65706;SDS011;52423;43.512;5.220;2024-03-02T00:53:43;5.70;;;3.60;;
65706;SDS011;52423;43.512;5.220;2024-03-02T00:56:09;6.85;;;3.53;;
65706;SDS011;52423;43.512;5.220;2024-03-02T00:58:36;6.97;;;4.53;;
65706;SDS011;52423;43.512;5.220;2024-03-02T01:01:02;7.50;;;4.32;;
65706;SDS011;52423;43.512;5.220;2024-03-02T01:03:27;9.38;;;4.13;;
65706;SDS011;52423;43.512;5.220;2024-03-02T01:05:53;5.85;;;3.42;;
65706;SDS011;52423;43.512;5.220;2024-03-02T01:08:18;3.92;;;2.70;;
65706;SDS011;52423;43.512;5.220;2024-03-02T01:10:44;3.60;;;2.28;;
65706;SDS011;52423;43.512;5.220;2024-03-02T01:13:09;3.53;;;1.95;;
65706;SDS011;52423;43.512;5.220;2024-03-02T01:15:34;6.00;;;2.97;;
65706;SDS011;52423;43.512;5.220;2024-03-02T01:18:00;7.28;;;3.38;;
65706;SDS011;52423;43.512;5.220;2024-03-02T01:20:25;5.60;;;2.53;;
65706;SDS011;52423;43.512;5.220;2024-03-02T01:22:51;6.10;;;3.45;;
65706;SDS011;52423;43.512;5.220;2024-03-02T01:25:17;5.60;;;3.05;;
65706;SDS011;52423;43.512;5.220;2024-03-02T01:27:42;5.82;;;3.55;;
65706;SDS011;52423;43.512;5.220;2024-03-02T01:30:08;4.90;;;1.88;;
65706;SDS011;52423;43.512;5.220;2024-03-02T01:32:33;4.22;;;1.95;;
65706;SDS011;52423;43.512;5.220;2024-03-02T01:34:59;4.50;;;2.20;;
65706;SDS011;52423;43.512;5.220;2024-03-02T01:37:24;5.88;;;2.30;;
65706;SDS011;52423;43.512;5.220;2024-03-02T01:39:50;5.30;;;2.85;;
65706;SDS011;52423;43.512;5.220;2024-03-02T01:42:15;3.63;;;1.90;;
65706;SDS011;52423;43.512;5.220;2024-03-02T01:44:40;5.32;;;2.55;;
65706;SDS011;52423;43.512;5.220;2024-03-02T01:47:06;4.57;;;1.55;;
65706;SDS011;52423;43.512;5.220;2024-03-02T01:49:31;5.10;;;2.30;;
65706;SDS011;52423;43.512;5.220;2024-03-02T01:51:59;2.95;;;1.83;;
65706;SDS011;52423;43.512;5.220;2024-03-02T01:54:24;4.32;;;1.95;;
65706;SDS011;52423;43.512;5.220;2024-03-02T01:56:50;4.63;;;2.47;;
65706;SDS011;52423;43.512;5.220;2024-03-02T01:59:15;3.42;;;2.88;;
65706;SDS011;52423;43.512;5.220;2024-03-02T02:01:41;3.95;;;2.35;;
65706;SDS011;52423;43.512;5.220;2024-03-02T02:04:06;3.40;;;1.85;;
65706;SDS011;52423;43.512;5.220;2024-03-02T02:06:32;3.35;;;2.47;;
65706;SDS011;52423;43.512;5.220;2024-03-02T02:08:57;5.78;;;2.70;;
65706;SDS011;52423;43.512;5.220;2024-03-02T02:11:24;3.08;;;1.90;;
65706;SDS011;52423;43.512;5.220;2024-03-02T02:13:49;4.63;;;2.13;;
65706;SDS011;52423;43.512;5.220;2024-03-02T02:16:15;4.28;;;2.13;;
65706;SDS011;52423;43.512;5.220;2024-03-02T02:18:40;3.83;;;1.73;;
65706;SDS011;52423;43.512;5.220;2024-03-02T02:21:06;4.45;;;3.13;;
65706;SDS011;52423;43.512;5.220;2024-03-02T02:23:31;2.70;;;1.63;;
65706;SDS011;52423;43.512;5.220;2024-03-02T02:25:56;6.13;;;3.33;;
65706;SDS011;52423;43.512;5.220;2024-03-02T02:28:22;3.17;;;1.83;;
65706;SDS011;52423;43.512;5.220;2024-03-02T02:30:48;2.63;;;1.83;;
65706;SDS011;52423;43.512;5.220;2024-03-02T02:33:13;4.78;;;2.28;;
65706;SDS011;52423;43.512;5.220;2024-03-02T02:35:38;4.85;;;2.90;;
65706;SDS011;52423;43.512;5.220;2024-03-02T02:38:04;3.33;;;2.13;;
65706;SDS011;52423;43.512;5.220;2024-03-02T02:40:30;4.38;;;2.67;;
65706;SDS011;52423;43.512;5.220;2024-03-02T02:42:56;2.80;;;1.83;;
65706;SDS011;52423;43.512;5.220;2024-03-02T02:47:50;4.45;;;3.15;;
65706;SDS011;52423;43.512;5.220;2024-03-02T02:50:15;3.55;;;1.85;;
65706;SDS011;52423;43.512;5.220;2024-03-02T02:52:41;4.20;;;1.95;;
65706;SDS011;52423;43.512;5.220;2024-03-02T02:55:08;6.43;;;2.63;;
65706;SDS011;52423;43.512;5.220;2024-03-02T02:57:38;3.38;;;1.85;;
65706;SDS011;52423;43.512;5.220;2024-03-02T03:00:06;4.28;;;2.25;;
65706;SDS011;52423;43.512;5.220;2024-03-02T03:02:38;3.80;;;2.03;;
65706;SDS011;52423;43.512;5.220;2024-03-02T03:05:04;4.35;;;1.67;;
65706;SDS011;52423;43.512;5.220;2024-03-02T03:07:31;3.03;;;2.28;;
65706;SDS011;52423;43.512;5.220;2024-03-02T03:09:56;2.90;;;2.00;;
65706;SDS011;52423;43.512;5.220;2024-03-02T03:12:22;4.38;;;2.38;;
65706;SDS011;52423;43.512;5.220;2024-03-02T03:14:47;4.57;;;2.03;;
65706;SDS011;52423;43.512;5.220;2024-03-02T03:17:12;5.30;;;2.38;;
65706;SDS011;52423;43.512;5.220;2024-03-02T03:19:38;7.05;;;2.17;;
65706;SDS011;52423;43.512;5.220;2024-03-02T03:22:04;4.57;;;2.60;;
65706;SDS011;52423;43.512;5.220;2024-03-02T03:24:29;3.85;;;2.95;;
65706;SDS011;52423;43.512;5.220;2024-03-02T03:26:54;3.83;;;2.35;;
65706;SDS011;52423;43.512;5.220;2024-03-02T03:29:20;3.72;;;1.88;;
65706;SDS011;52423;43.512;5.220;2024-03-02T03:31:45;4.00;;;2.90;;
65706;SDS011;52423;43.512;5.220;2024-03-02T03:34:11;4.80;;;3.22;;
65706;SDS011;52423;43.512;5.220;2024-03-02T03:36:40;4.32;;;2.35;;
65706;SDS011;52423;43.512;5.220;2024-03-02T03:39:06;3.63;;;2.80;;
65706;SDS011;52423;43.512;5.220;2024-03-02T03:41:31;3.67;;;2.10;;
65706;SDS011;52423;43.512;5.220;2024-03-02T03:43:57;4.85;;;2.53;;
65706;SDS011;52423;43.512;5.220;2024-03-02T03:46:22;5.90;;;2.30;;
65706;SDS011;52423;43.512;5.220;2024-03-02T03:48:47;3.58;;;2.50;;
65706;SDS011;52423;43.512;5.220;2024-03-02T03:51:13;6.78;;;2.08;;
65706;SDS011;52423;43.512;5.220;2024-03-02T03:53:39;3.40;;;1.95;;
65706;SDS011;52423;43.512;5.220;2024-03-02T03:56:04;3.65;;;1.77;;
65706;SDS011;52423;43.512;5.220;2024-03-02T03:58:30;4.75;;;3.67;;
65706;SDS011;52423;43.512;5.220;2024-03-02T04:00:55;3.83;;;2.20;;
65706;SDS011;52423;43.512;5.220;2024-03-02T04:03:21;4.50;;;2.58;;
65706;SDS011;52423;43.512;5.220;2024-03-02T04:05:47;2.78;;;2.20;;
65706;SDS011;52423;43.512;5.220;2024-03-02T04:08:12;4.70;;;2.40;;
65706;SDS011;52423;43.512;5.220;2024-03-02T04:10:38;4.13;;;2.90;;
65706;SDS011;52423;43.512;5.220;2024-03-02T04:13:03;4.10;;;1.20;;
65706;SDS011;52423;43.512;5.220;2024-03-02T04:15:29;5.47;;;2.15;;
65706;SDS011;52423;43.512;5.220;2024-03-02T04:17:54;4.55;;;1.88;;
65706;SDS011;52423;43.512;5.220;2024-03-02T04:20:20;6.10;;;2.33;;
65706;SDS011;52423;43.512;5.220;2024-03-02T04:22:45;4.60;;;3.47;;
65706;SDS011;52423;43.512;5.220;2024-03-02T04:25:11;2.15;;;1.88;;
65706;SDS011;52423;43.512;5.220;2024-03-02T04:27:36;3.63;;;1.88;;
65706;SDS011;52423;43.512;5.220;2024-03-02T04:30:02;3.78;;;2.42;;
65706;SDS011;52423;43.512;5.220;2024-03-02T04:32:30;4.30;;;2.70;;
65706;SDS011;52423;43.512;5.220;2024-03-02T04:34:56;4.85;;;2.38;;
65706;SDS011;52423;43.512;5.220;2024-03-02T04:37:21;4.32;;;1.85;;
65706;SDS011;52423;43.512;5.220;2024-03-02T04:39:47;4.13;;;2.22;;
65706;SDS011;52423;43.512;5.220;2024-03-02T04:42:12;4.50;;;2.25;;
65706;SDS011;52423;43.512;5.220;2024-03-02T04:44:38;3.88;;;2.08;;
65706;SDS011;52423;43.512;5.220;2024-03-02T04:47:03;3.92;;;1.80;;
65706;SDS011;52423;43.512;5.220;2024-03-02T04:49:29;5.82;;;2.17;;
65706;SDS011;52423;43.512;5.220;2024-03-02T04:51:55;2.95;;;1.95;;
65706;SDS011;52423;43.512;5.220;2024-03-02T04:54:21;5.25;;;2.20;;
65706;SDS011;52423;43.512;5.220;2024-03-02T04:56:47;3.63;;;2.28;;
65706;SDS011;52423;43.512;5.220;2024-03-02T04:59:16;4.88;;;1.98;;
65706;SDS011;52423;43.512;5.220;2024-03-02T05:01:42;4.60;;;2.03;;
65706;SDS011;52423;43.512;5.220;2024-03-02T05:04:07;2.90;;;2.28;;
65706;SDS011;52423;43.512;5.220;2024-03-02T05:06:33;3.95;;;2.47;;
65706;SDS011;52423;43.512;5.220;2024-03-02T05:08:59;4.43;;;2.42;;
65706;SDS011;52423;43.512;5.220;2024-03-02T05:11:24;4.10;;;1.73;;
65706;SDS011;52423;43.512;5.220;2024-03-02T05:14:05;4.22;;;2.15;;
65706;SDS011;52423;43.512;5.220;2024-03-02T05:16:34;4.35;;;2.60;;
65706;SDS011;52423;43.512;5.220;2024-03-02T05:19:06;4.72;;;2.55;;
65706;SDS011;52423;43.512;5.220;2024-03-02T05:21:32;2.17;;;1.25;;
65706;SDS011;52423;43.512;5.220;2024-03-02T05:23:58;5.03;;;1.42;;
65706;SDS011;52423;43.512;5.220;2024-03-02T05:26:24;2.97;;;1.75;;
65706;SDS011;52423;43.512;5.220;2024-03-02T05:28:49;4.28;;;1.83;;
65706;SDS011;52423;43.512;5.220;2024-03-02T05:31:15;2.75;;;1.65;;
65706;SDS011;52423;43.512;5.220;2024-03-02T05:33:41;2.17;;;1.35;;
65706;SDS011;52423;43.512;5.220;2024-03-02T05:36:07;3.50;;;2.28;;
65706;SDS011;52423;43.512;5.220;2024-03-02T05:38:36;4.80;;;3.95;;
65706;SDS011;52423;43.512;5.220;2024-03-02T05:41:01;3.28;;;1.58;;
65706;SDS011;52423;43.512;5.220;2024-03-02T05:43:27;5.15;;;1.73;;
65706;SDS011;52423;43.512;5.220;2024-03-02T05:45:53;4.32;;;2.00;;
65706;SDS011;52423;43.512;5.220;2024-03-02T05:48:18;3.22;;;2.75;;
65706;SDS011;52423;43.512;5.220;2024-03-02T05:50:44;4.00;;;1.45;;
65706;SDS011;52423;43.512;5.220;2024-03-02T05:53:09;5.60;;;2.38;;
65706;SDS011;52423;43.512;5.220;2024-03-02T05:55:34;2.53;;;1.50;;
65706;SDS011;52423;43.512;5.220;2024-03-02T05:58:00;5.88;;;2.55;;
65706;SDS011;52423;43.512;5.220;2024-03-02T06:00:47;4.80;;;2.53;;
65706;SDS011;52423;43.512;5.220;2024-03-02T06:03:13;3.75;;;1.58;;
65706;SDS011;52423;43.512;5.220;2024-03-02T06:05:38;6.90;;;3.33;;
65706;SDS011;52423;43.512;5.220;2024-03-02T06:08:03;3.40;;;2.15;;
65706;SDS011;52423;43.512;5.220;2024-03-02T06:10:29;6.68;;;2.35;;
65706;SDS011;52423;43.512;5.220;2024-03-02T06:12:54;5.80;;;2.08;;
65706;SDS011;52423;43.512;5.220;2024-03-02T06:15:20;5.13;;;2.28;;
65706;SDS011;52423;43.512;5.220;2024-03-02T06:17:45;6.85;;;2.58;;
65706;SDS011;52423;43.512;5.220;2024-03-02T06:20:10;5.38;;;2.30;;
65706;SDS011;52423;43.512;5.220;2024-03-02T06:22:36;3.70;;;2.13;;
65706;SDS011;52423;43.512;5.220;2024-03-02T06:25:02;5.22;;;2.75;;
65706;SDS011;52423;43.512;5.220;2024-03-02T06:27:27;4.47;;;2.15;;
65706;SDS011;52423;43.512;5.220;2024-03-02T06:29:52;7.80;;;2.10;;
65706;SDS011;52423;43.512;5.220;2024-03-02T06:32:19;4.30;;;3.55;;
65706;SDS011;52423;43.512;5.220;2024-03-02T06:34:45;7.75;;;3.00;;
65706;SDS011;52423;43.512;5.220;2024-03-02T06:37:10;7.95;;;3.83;;
65706;SDS011;52423;43.512;5.220;2024-03-02T06:39:36;3.63;;;2.13;;
65706;SDS011;52423;43.512;5.220;2024-03-02T06:42:01;8.00;;;3.20;;
65706;SDS011;52423;43.512;5.220;2024-03-02T06:44:27;4.75;;;2.80;;
65706;SDS011;52423;43.512;5.220;2024-03-02T06:46:52;7.38;;;3.67;;
65706;SDS011;52423;43.512;5.220;2024-03-02T06:49:17;10.57;;;2.95;;
65706;SDS011;52423;43.512;5.220;2024-03-02T06:51:43;6.55;;;2.95;;
65706;SDS011;52423;43.512;5.220;2024-03-02T06:54:09;3.95;;;1.85;;
65706;SDS011;52423;43.512;5.220;2024-03-02T06:56:34;4.57;;;1.33;;
65706;SDS011;52423;43.512;5.220;2024-03-02T06:58:59;12.25;;;2.97;;
65706;SDS011;52423;43.512;5.220;2024-03-02T07:01:25;3.72;;;1.75;;
65706;SDS011;52423;43.512;5.220;2024-03-02T07:03:51;5.10;;;3.63;;
65706;SDS011;52423;43.512;5.220;2024-03-02T07:06:16;4.22;;;1.48;;
65706;SDS011;52423;43.512;5.220;2024-03-02T07:08:42;7.72;;;2.17;;
65706;SDS011;52423;43.512;5.220;2024-03-02T07:11:07;7.43;;;2.20;;
65706;SDS011;52423;43.512;5.220;2024-03-02T07:13:32;6.50;;;2.15;;
65706;SDS011;52423;43.512;5.220;2024-03-02T07:15:58;7.53;;;3.90;;
65706;SDS011;52423;43.512;5.220;2024-03-02T07:18:29;6.57;;;2.55;;
65706;SDS011;52423;43.512;5.220;2024-03-02T07:20:55;6.57;;;2.80;;
65706;SDS011;52423;43.512;5.220;2024-03-02T07:23:23;5.63;;;2.85;;
65706;SDS011;52423;43.512;5.220;2024-03-02T07:25:52;4.13;;;2.72;;
65706;SDS011;52423;43.512;5.220;2024-03-02T07:28:21;3.83;;;1.95;;
65706;SDS011;52423;43.512;5.220;2024-03-02T07:30:47;8.05;;;5.15;;
65706;SDS011;52423;43.512;5.220;2024-03-02T07:33:23;4.10;;;1.85;;
65706;SDS011;52423;43.512;5.220;2024-03-02T07:35:49;5.57;;;2.10;;
65706;SDS011;52423;43.512;5.220;2024-03-02T07:38:14;4.78;;;1.70;;
65706;SDS011;52423;43.512;5.220;2024-03-02T07:40:39;6.10;;;2.70;;
65706;SDS011;52423;43.512;5.220;2024-03-02T07:43:05;5.50;;;1.58;;
65706;SDS011;52423;43.512;5.220;2024-03-02T07:45:30;4.68;;;2.55;;
65706;SDS011;52423;43.512;5.220;2024-03-02T07:47:56;8.05;;;3.20;;
65706;SDS011;52423;43.512;5.220;2024-03-02T07:50:22;3.53;;;2.17;;
65706;SDS011;52423;43.512;5.220;2024-03-02T07:52:47;5.43;;;3.88;;
65706;SDS011;52423;43.512;5.220;2024-03-02T07:55:13;7.65;;;2.58;;
65706;SDS011;52423;43.512;5.220;2024-03-02T07:57:38;7.00;;;2.83;;
65706;SDS011;52423;43.512;5.220;2024-03-02T08:00:04;6.40;;;3.15;;
65706;SDS011;52423;43.512;5.220;2024-03-02T08:02:30;4.55;;;2.17;;
65706;SDS011;52423;43.512;5.220;2024-03-02T08:04:55;6.18;;;2.75;;
65706;SDS011;52423;43.512;5.220;2024-03-02T08:07:20;7.28;;;3.78;;
65706;SDS011;52423;43.512;5.220;2024-03-02T08:09:46;8.65;;;3.45;;
65706;SDS011;52423;43.512;5.220;2024-03-02T08:12:11;7.28;;;2.90;;
65706;SDS011;52423;43.512;5.220;2024-03-02T08:14:37;4.57;;;2.15;;
65706;SDS011;52423;43.512;5.220;2024-03-02T08:17:02;6.75;;;3.00;;
65706;SDS011;52423;43.512;5.220;2024-03-02T08:19:27;6.70;;;1.73;;
65706;SDS011;52423;43.512;5.220;2024-03-02T08:21:53;5.45;;;2.28;;
65706;SDS011;52423;43.512;5.220;2024-03-02T08:24:19;2.65;;;1.30;;
65706;SDS011;52423;43.512;5.220;2024-03-02T08:26:44;4.35;;;1.98;;
65706;SDS011;52423;43.512;5.220;2024-03-02T08:29:09;4.38;;;1.63;;
65706;SDS011;52423;43.512;5.220;2024-03-02T08:31:36;5.55;;;2.08;;
65706;SDS011;52423;43.512;5.220;2024-03-02T08:34:01;5.07;;;1.80;;
65706;SDS011;52423;43.512;5.220;2024-03-02T08:36:27;4.90;;;1.40;;
65706;SDS011;52423;43.512;5.220;2024-03-02T08:38:52;5.00;;;1.30;;
65706;SDS011;52423;43.512;5.220;2024-03-02T08:41:18;4.43;;;1.42;;
65706;SDS011;52423;43.512;5.220;2024-03-02T08:43:43;3.97;;;1.73;;
65706;SDS011;52423;43.512;5.220;2024-03-02T08:46:09;1.35;;;0.63;;
65706;SDS011;52423;43.512;5.220;2024-03-02T08:48:35;7.10;;;1.55;;
65706;SDS011;52423;43.512;5.220;2024-03-02T08:51:00;5.95;;;1.75;;
65706;SDS011;52423;43.512;5.220;2024-03-02T08:53:26;4.38;;;1.85;;
65706;SDS011;52423;43.512;5.220;2024-03-02T08:55:51;3.45;;;1.17;;
65706;SDS011;52423;43.512;5.220;2024-03-02T08:58:16;3.95;;;1.38;;
65706;SDS011;52423;43.512;5.220;2024-03-02T09:00:42;4.05;;;1.42;;
65706;SDS011;52423;43.512;5.220;2024-03-02T09:03:07;4.45;;;1.52;;
65706;SDS011;52423;43.512;5.220;2024-03-02T09:05:33;3.28;;;1.33;;
65706;SDS011;52423;43.512;5.220;2024-03-02T09:07:58;3.53;;;1.35;;
65706;SDS011;52423;43.512;5.220;2024-03-02T09:10:23;3.97;;;1.88;;
65706;SDS011;52423;43.512;5.220;2024-03-02T09:12:49;5.90;;;1.42;;
65706;SDS011;52423;43.512;5.220;2024-03-02T09:15:14;8.45;;;2.55;;
65706;SDS011;52423;43.512;5.220;2024-03-02T09:17:40;5.65;;;2.47;;
65706;SDS011;52423;43.512;5.220;2024-03-02T09:20:05;5.82;;;1.10;;
65706;SDS011;52423;43.512;5.220;2024-03-02T09:22:31;4.97;;;1.75;;
65706;SDS011;52423;43.512;5.220;2024-03-02T09:24:57;6.03;;;1.77;;
65706;SDS011;52423;43.512;5.220;2024-03-02T09:27:23;4.30;;;2.83;;
65706;SDS011;52423;43.512;5.220;2024-03-02T09:29:48;2.92;;;1.00;;
65706;SDS011;52423;43.512;5.220;2024-03-02T09:32:14;4.13;;;1.70;;
65706;SDS011;52423;43.512;5.220;2024-03-02T09:34:39;10.35;;;2.28;;
65706;SDS011;52423;43.512;5.220;2024-03-02T09:37:05;4.88;;;0.90;;
65706;SDS011;52423;43.512;5.220;2024-03-02T09:39:31;2.80;;;1.23;;
65706;SDS011;52423;43.512;5.220;2024-03-02T09:41:57;3.72;;;1.00;;
65706;SDS011;52423;43.512;5.220;2024-03-02T09:44:24;5.38;;;1.58;;
65706;SDS011;52423;43.512;5.220;2024-03-02T09:46:50;5.43;;;1.15;;
65706;SDS011;52423;43.512;5.220;2024-03-02T09:49:16;4.07;;;1.00;;
65706;SDS011;52423;43.512;5.220;2024-03-02T09:51:48;6.90;;;1.20;;
65706;SDS011;52423;43.512;5.220;2024-03-02T09:54:15;6.38;;;1.85;;
65706;SDS011;52423;43.512;5.220;2024-03-02T09:56:41;10.88;;;2.05;;
65706;SDS011;52423;43.512;5.220;2024-03-02T09:59:06;7.30;;;2.67;;
65706;SDS011;52423;43.512;5.220;2024-03-02T10:01:32;8.88;;;1.40;;
65706;SDS011;52423;43.512;5.220;2024-03-02T10:04:00;6.90;;;1.40;;
65706;SDS011;52423;43.512;5.220;2024-03-02T10:06:27;5.55;;;0.95;;
65706;SDS011;52423;43.512;5.220;2024-03-02T10:08:54;5.57;;;1.67;;
65706;SDS011;52423;43.512;5.220;2024-03-02T10:11:34;7.70;;;1.38;;
65706;SDS011;52423;43.512;5.220;2024-03-02T10:14:11;10.52;;;2.67;;
65706;SDS011;52423;43.512;5.220;2024-03-02T10:16:38;9.70;;;1.90;;
65706;SDS011;52423;43.512;5.220;2024-03-02T10:19:17;4.55;;;2.83;;
65706;SDS011;52423;43.512;5.220;2024-03-02T10:21:50;5.50;;;0.85;;
65706;SDS011;52423;43.512;5.220;2024-03-02T10:24:17;3.28;;;1.25;;
65706;SDS011;52423;43.512;5.220;2024-03-02T10:26:43;4.53;;;1.92;;
65706;SDS011;52423;43.512;5.220;2024-03-02T10:29:09;4.75;;;1.30;;
65706;SDS011;52423;43.512;5.220;2024-03-02T10:31:36;6.40;;;1.35;;
65706;SDS011;52423;43.512;5.220;2024-03-02T10:34:03;5.05;;;2.47;;
65706;SDS011;52423;43.512;5.220;2024-03-02T10:36:28;7.32;;;1.75;;
65706;SDS011;52423;43.512;5.220;2024-03-02T10:38:56;6.93;;;2.72;;
65706;SDS011;52423;43.512;5.220;2024-03-02T10:41:26;5.57;;;1.63;;
65706;SDS011;52423;43.512;5.220;2024-03-02T10:43:52;4.72;;;1.48;;
65706;SDS011;52423;43.512;5.220;2024-03-02T10:46:30;5.55;;;1.95;;
65706;SDS011;52423;43.512;5.220;2024-03-02T10:48:59;5.43;;;1.35;;
65706;SDS011;52423;43.512;5.220;2024-03-02T10:51:26;6.85;;;1.95;;
65706;SDS011;52423;43.512;5.220;2024-03-02T10:53:53;10.10;;;2.15;;
65706;SDS011;52423;43.512;5.220;2024-03-02T10:56:30;7.88;;;2.63;;
65706;SDS011;52423;43.512;5.220;2024-03-02T11:01:58;6.63;;;1.13;;
65706;SDS011;52423;43.512;5.220;2024-03-02T11:04:26;6.28;;;1.65;;
65706;SDS011;52423;43.512;5.220;2024-03-02T11:06:54;6.45;;;1.73;;
65706;SDS011;52423;43.512;5.220;2024-03-02T11:09:33;7.13;;;1.00;;
65706;SDS011;52423;43.512;5.220;2024-03-02T11:12:09;7.82;;;2.28;;
65706;SDS011;52423;43.512;5.220;2024-03-02T11:14:40;7.93;;;1.52;;
65706;SDS011;52423;43.512;5.220;2024-03-02T11:17:09;9.95;;;2.10;;
65706;SDS011;52423;43.512;5.220;2024-03-02T11:19:37;6.10;;;1.65;;
65706;SDS011;52423;43.512;5.220;2024-03-02T11:22:03;7.97;;;2.20;;
65706;SDS011;52423;43.512;5.220;2024-03-02T11:24:30;5.97;;;2.20;;
65706;SDS011;52423;43.512;5.220;2024-03-02T11:26:58;4.15;;;1.08;;
65706;SDS011;52423;43.512;5.220;2024-03-02T11:32:21;9.15;;;2.20;;
65706;SDS011;52423;43.512;5.220;2024-03-02T11:34:49;3.50;;;0.73;;
65706;SDS011;52423;43.512;5.220;2024-03-02T11:37:16;8.88;;;2.20;;
65706;SDS011;52423;43.512;5.220;2024-03-02T11:39:45;8.32;;;2.22;;
65706;SDS011;52423;43.512;5.220;2024-03-02T11:42:12;9.05;;;1.83;;
65706;SDS011;52423;43.512;5.220;2024-03-02T11:44:50;6.03;;;1.40;;
65706;SDS011;52423;43.512;5.220;2024-03-02T11:47:16;5.45;;;1.10;;
65706;SDS011;52423;43.512;5.220;2024-03-02T11:52:11;4.40;;;1.10;;
65706;SDS011;52423;43.512;5.220;2024-03-02T11:54:44;4.47;;;1.88;;
65706;SDS011;52423;43.512;5.220;2024-03-02T11:57:20;7.90;;;1.85;;
65706;SDS011;52423;43.512;5.220;2024-03-02T11:59:47;6.90;;;1.40;;
65706;SDS011;52423;43.512;5.220;2024-03-02T12:02:15;4.07;;;0.88;;
65706;SDS011;52423;43.512;5.220;2024-03-02T12:04:44;8.05;;;1.45;;
65706;SDS011;52423;43.512;5.220;2024-03-02T12:07:11;3.28;;;1.33;;
65706;SDS011;52423;43.512;5.220;2024-03-02T12:09:37;5.00;;;1.42;;
65706;SDS011;52423;43.512;5.220;2024-03-02T12:12:04;6.50;;;2.03;;
65706;SDS011;52423;43.512;5.220;2024-03-02T12:14:34;4.57;;;1.63;;
65706;SDS011;52423;43.512;5.220;2024-03-02T12:17:01;6.47;;;1.95;;
65706;SDS011;52423;43.512;5.220;2024-03-02T12:19:27;6.10;;;1.75;;
65706;SDS011;52423;43.512;5.220;2024-03-02T12:21:55;11.35;;;2.53;;
65706;SDS011;52423;43.512;5.220;2024-03-02T12:24:26;8.32;;;1.55;;
65706;SDS011;52423;43.512;5.220;2024-03-02T12:26:52;14.32;;;2.00;;
65706;SDS011;52423;43.512;5.220;2024-03-02T12:29:18;8.77;;;2.45;;
65706;SDS011;52423;43.512;5.220;2024-03-02T12:31:44;5.65;;;2.03;;
65706;SDS011;52423;43.512;5.220;2024-03-02T12:34:11;8.65;;;1.77;;
65706;SDS011;52423;43.512;5.220;2024-03-02T12:36:38;5.70;;;1.38;;
65706;SDS011;52423;43.512;5.220;2024-03-02T12:39:04;6.00;;;2.08;;
65706;SDS011;52423;43.512;5.220;2024-03-02T12:41:30;5.70;;;1.27;;
65706;SDS011;52423;43.512;5.220;2024-03-02T12:43:55;4.88;;;1.20;;
65706;SDS011;52423;43.512;5.220;2024-03-02T12:46:21;8.10;;;2.17;;
65706;SDS011;52423;43.512;5.220;2024-03-02T12:48:46;5.55;;;1.52;;
65706;SDS011;52423;43.512;5.220;2024-03-02T12:51:11;5.40;;;1.80;;
65706;SDS011;52423;43.512;5.220;2024-03-02T12:53:37;9.18;;;2.22;;
65706;SDS011;52423;43.512;5.220;2024-03-02T12:56:02;5.07;;;1.58;;
65706;SDS011;52423;43.512;5.220;2024-03-02T12:58:29;5.72;;;2.00;;
65706;SDS011;52423;43.512;5.220;2024-03-02T13:01:05;8.90;;;1.10;;
65706;SDS011;52423;43.512;5.220;2024-03-02T13:03:34;10.18;;;1.70;;
65706;SDS011;52423;43.512;5.220;2024-03-02T13:08:26;4.88;;;1.15;;
65706;SDS011;52423;43.512;5.220;2024-03-02T13:10:52;5.38;;;1.20;;
65706;SDS011;52423;43.512;5.220;2024-03-02T13:13:17;4.28;;;0.70;;
65706;SDS011;52423;43.512;5.220;2024-03-02T13:15:43;5.20;;;1.25;;
65706;SDS011;52423;43.512;5.220;2024-03-02T13:18:09;5.68;;;1.30;;
65706;SDS011;52423;43.512;5.220;2024-03-02T13:20:36;3.88;;;1.63;;
65706;SDS011;52423;43.512;5.220;2024-03-02T13:23:02;4.38;;;1.13;;
65706;SDS011;52423;43.512;5.220;2024-03-02T13:25:27;7.55;;;1.95;;
65706;SDS011;52423;43.512;5.220;2024-03-02T13:27:53;9.55;;;2.15;;
65706;SDS011;52423;43.512;5.220;2024-03-02T13:30:18;6.65;;;1.40;;
65706;SDS011;52423;43.512;5.220;2024-03-02T13:32:44;6.30;;;2.35;;
65706;SDS011;52423;43.512;5.220;2024-03-02T13:35:09;5.72;;;1.08;;
65706;SDS011;52423;43.512;5.220;2024-03-02T13:37:37;5.47;;;1.70;;
65706;SDS011;52423;43.512;5.220;2024-03-02T13:40:03;4.88;;;1.35;;
65706;SDS011;52423;43.512;5.220;2024-03-02T13:42:29;4.10;;;1.52;;
65706;SDS011;52423;43.512;5.220;2024-03-02T13:44:55;4.05;;;1.30;;
65706;SDS011;52423;43.512;5.220;2024-03-02T13:47:21;9.82;;;0.90;;
65706;SDS011;52423;43.512;5.220;2024-03-02T13:49:47;4.68;;;1.73;;
65706;SDS011;52423;43.512;5.220;2024-03-02T13:52:14;7.72;;;1.77;;
65706;SDS011;52423;43.512;5.220;2024-03-02T13:54:40;4.18;;;0.60;;
65706;SDS011;52423;43.512;5.220;2024-03-02T13:57:08;3.63;;;1.00;;
65706;SDS011;52423;43.512;5.220;2024-03-02T13:59:34;4.25;;;1.85;;
65706;SDS011;52423;43.512;5.220;2024-03-02T14:02:01;5.53;;;1.42;;
65706;SDS011;52423;43.512;5.220;2024-03-02T14:04:26;3.72;;;1.10;;
65706;SDS011;52423;43.512;5.220;2024-03-02T14:06:52;3.08;;;0.82;;
65706;SDS011;52423;43.512;5.220;2024-03-02T14:09:18;6.15;;;2.25;;
65706;SDS011;52423;43.512;5.220;2024-03-02T14:11:45;4.22;;;1.45;;
65706;SDS011;52423;43.512;5.220;2024-03-02T14:14:11;4.55;;;1.40;;
65706;SDS011;52423;43.512;5.220;2024-03-02T14:16:36;6.97;;;1.08;;
65706;SDS011;52423;43.512;5.220;2024-03-02T14:19:01;5.47;;;1.80;;
65706;SDS011;52423;43.512;5.220;2024-03-02T14:21:29;6.60;;;2.78;;
65706;SDS011;52423;43.512;5.220;2024-03-02T14:23:54;4.00;;;1.30;;
65706;SDS011;52423;43.512;5.220;2024-03-02T14:26:20;8.45;;;1.65;;
65706;SDS011;52423;43.512;5.220;2024-03-02T14:28:46;3.90;;;1.25;;
65706;SDS011;52423;43.512;5.220;2024-03-02T14:31:11;6.07;;;1.42;;
65706;SDS011;52423;43.512;5.220;2024-03-02T14:33:36;9.18;;;2.20;;
65706;SDS011;52423;43.512;5.220;2024-03-02T14:36:02;5.50;;;1.55;;
65706;SDS011;52423;43.512;5.220;2024-03-02T14:38:29;8.00;;;1.67;;
65706;SDS011;52423;43.512;5.220;2024-03-02T14:40:55;7.80;;;1.98;;
65706;SDS011;52423;43.512;5.220;2024-03-02T14:43:20;7.07;;;1.05;;
65706;SDS011;52423;43.512;5.220;2024-03-02T14:45:46;6.95;;;2.20;;
65706;SDS011;52423;43.512;5.220;2024-03-02T14:48:11;8.35;;;1.73;;
65706;SDS011;52423;43.512;5.220;2024-03-02T14:50:37;7.25;;;1.73;;
65706;SDS011;52423;43.512;5.220;2024-03-02T14:53:02;3.65;;;1.23;;
65706;SDS011;52423;43.512;5.220;2024-03-02T14:55:27;10.35;;;3.60;;
65706;SDS011;52423;43.512;5.220;2024-03-02T14:57:53;8.40;;;3.40;;
65706;SDS011;52423;43.512;5.220;2024-03-02T15:00:18;6.43;;;1.70;;
65706;SDS011;52423;43.512;5.220;2024-03-02T15:02:44;7.93;;;2.15;;